sensor_id;sensor_type;location;lat;lon;timestamp;P1;durP1;ratioP1;P2;durP2;ratioP2
55063;SDS011;40963;52.168;21.296;2023-04-08T00:00:05;12.95;;;7.00;;
55063;SDS011;40963;52.168;21.296;2023-04-08T00:02:31;12.55;;;6.50;;
55063;SDS011;40963;52.168;21.296;2023-04-08T00:04:57;16.92;;;8.77;;
55063;SDS011;40963;52.168;21.296;2023-04-08T00:07:23;14.45;;;8.68;;
55063;SDS011;40963;52.168;21.296;2023-04-08T00:09:48;17.80;;;10.43;;
55063;SDS011;40963;52.168;21.296;2023-04-08T00:12:14;18.00;;;10.07;;
55063;SDS011;40963;52.168;21.296;2023-04-08T00:14:40;14.23;;;8.35;;
55063;SDS011;40963;52.168;21.296;2023-04-08T00:17:06;13.70;;;7.85;;
55063;SDS011;40963;52.168;21.296;2023-04-08T00:19:31;12.98;;;7.15;;
55063;SDS011;40963;52.168;21.296;2023-04-08T00:21:57;12.35;;;6.90;;
55063;SDS011;40963;52.168;21.296;2023-04-08T00:24:23;12.75;;;6.97;;
55063;SDS011;40963;52.168;21.296;2023-04-08T00:26:49;14.93;;;7.47;;
55063;SDS011;40963;52.168;21.296;2023-04-08T00:29:15;13.10;;;7.72;;
55063;SDS011;40963;52.168;21.296;2023-04-08T00:31:41;14.52;;;7.70;;
55063;SDS011;40963;52.168;21.296;2023-04-08T00:34:06;12.25;;;6.93;;
55063;SDS011;40963;52.168;21.296;2023-04-08T00:36:32;17.23;;;8.10;;
55063;SDS011;40963;52.168;21.296;2023-04-08T00:39:00;14.77;;;8.27;;
55063;SDS011;40963;52.168;21.296;2023-04-08T00:41:25;16.13;;;8.18;;
55063;SDS011;40963;52.168;21.296;2023-04-08T00:43:51;11.57;;;7.13;;
55063;SDS011;40963;52.168;21.296;2023-04-08T00:46:18;12.48;;;7.68;;
55063;SDS011;40963;52.168;21.296;2023-04-08T00:48:45;12.38;;;7.57;;
55063;SDS011;40963;52.168;21.296;2023-04-08T00:51:11;12.68;;;7.28;;
55063;SDS011;40963;52.168;21.296;2023-04-08T00:53:37;12.88;;;6.95;;
55063;SDS011;40963;52.168;21.296;2023-04-08T00:56:02;10.80;;;6.95;;
55063;SDS011;40963;52.168;21.296;2023-04-08T00:58:28;12.45;;;7.88;;
55063;SDS011;40963;52.168;21.296;2023-04-08T01:00:59;11.82;;;7.57;;
55063;SDS011;40963;52.168;21.296;2023-04-08T01:09:13;18.25;;;6.85;;
55063;SDS011;40963;52.168;21.296;2023-04-08T01:11:43;13.43;;;7.00;;
55063;SDS011;40963;52.168;21.296;2023-04-08T01:14:10;13.55;;;7.35;;
55063;SDS011;40963;52.168;21.296;2023-04-08T01:16:41;14.05;;;7.22;;
55063;SDS011;40963;52.168;21.296;2023-04-08T01:19:08;11.35;;;6.88;;
55063;SDS011;40963;52.168;21.296;2023-04-08T01:21:39;11.80;;;6.47;;
55063;SDS011;40963;52.168;21.296;2023-04-08T01:24:08;11.68;;;6.85;;
55063;SDS011;40963;52.168;21.296;2023-04-08T01:26:41;13.02;;;6.78;;
55063;SDS011;40963;52.168;21.296;2023-04-08T01:29:07;10.13;;;6.55;;
55063;SDS011;40963;52.168;21.296;2023-04-08T01:31:35;14.20;;;7.05;;
55063;SDS011;40963;52.168;21.296;2023-04-08T01:34:01;13.93;;;6.88;;
55063;SDS011;40963;52.168;21.296;2023-04-08T01:36:28;16.60;;;7.95;;
55063;SDS011;40963;52.168;21.296;2023-04-08T01:38:56;15.98;;;7.28;;
55063;SDS011;40963;52.168;21.296;2023-04-08T01:41:24;13.35;;;7.38;;
55063;SDS011;40963;52.168;21.296;2023-04-08T01:43:51;9.68;;;6.32;;
55063;SDS011;40963;52.168;21.296;2023-04-08T01:46:18;12.32;;;7.05;;
55063;SDS011;40963;52.168;21.296;2023-04-08T01:48:45;14.45;;;7.25;;
55063;SDS011;40963;52.168;21.296;2023-04-08T01:51:12;12.93;;;7.63;;
55063;SDS011;40963;52.168;21.296;2023-04-08T01:53:39;13.77;;;8.10;;
55063;SDS011;40963;52.168;21.296;2023-04-08T01:56:06;16.15;;;7.22;;
55063;SDS011;40963;52.168;21.296;2023-04-08T01:58:36;13.45;;;8.15;;
55063;SDS011;40963;52.168;21.296;2023-04-08T02:01:09;12.30;;;7.10;;
55063;SDS011;40963;52.168;21.296;2023-04-08T02:03:36;20.52;;;7.70;;
55063;SDS011;40963;52.168;21.296;2023-04-08T02:06:02;16.17;;;7.60;;
55063;SDS011;40963;52.168;21.296;2023-04-08T02:08:29;19.73;;;7.93;;
55063;SDS011;40963;52.168;21.296;2023-04-08T02:10:54;19.00;;;7.75;;
55063;SDS011;40963;52.168;21.296;2023-04-08T02:13:20;18.27;;;8.10;;
55063;SDS011;40963;52.168;21.296;2023-04-08T02:15:48;21.08;;;7.47;;
55063;SDS011;40963;52.168;21.296;2023-04-08T02:18:21;14.35;;;7.57;;
55063;SDS011;40963;52.168;21.296;2023-04-08T02:21:10;13.20;;;7.25;;
55063;SDS011;40963;52.168;21.296;2023-04-08T02:23:40;19.02;;;8.52;;
55063;SDS011;40963;52.168;21.296;2023-04-08T02:26:07;14.52;;;7.93;;
55063;SDS011;40963;52.168;21.296;2023-04-08T02:28:38;17.10;;;7.05;;
55063;SDS011;40963;52.168;21.296;2023-04-08T02:31:06;12.52;;;7.10;;
55063;SDS011;40963;52.168;21.296;2023-04-08T02:33:37;15.50;;;6.90;;
55063;SDS011;40963;52.168;21.296;2023-04-08T02:36:03;12.43;;;6.75;;
55063;SDS011;40963;52.168;21.296;2023-04-08T02:38:30;13.80;;;7.32;;
55063;SDS011;40963;52.168;21.296;2023-04-08T02:40:56;13.48;;;6.93;;
55063;SDS011;40963;52.168;21.296;2023-04-08T02:43:21;12.93;;;7.00;;
55063;SDS011;40963;52.168;21.296;2023-04-08T02:45:55;16.05;;;7.60;;
55063;SDS011;40963;52.168;21.296;2023-04-08T02:48:21;16.63;;;7.32;;
55063;SDS011;40963;52.168;21.296;2023-04-08T02:50:47;13.18;;;6.95;;
55063;SDS011;40963;52.168;21.296;2023-04-08T02:53:12;14.98;;;7.35;;
55063;SDS011;40963;52.168;21.296;2023-04-08T02:55:38;13.88;;;6.95;;
55063;SDS011;40963;52.168;21.296;2023-04-08T02:58:04;14.25;;;8.15;;
55063;SDS011;40963;52.168;21.296;2023-04-08T03:00:29;16.77;;;8.38;;
55063;SDS011;40963;52.168;21.296;2023-04-08T03:02:55;14.63;;;7.57;;
55063;SDS011;40963;52.168;21.296;2023-04-08T03:05:21;20.42;;;8.30;;
55063;SDS011;40963;52.168;21.296;2023-04-08T03:07:47;17.05;;;7.85;;
55063;SDS011;40963;52.168;21.296;2023-04-08T03:10:12;16.52;;;7.93;;
55063;SDS011;40963;52.168;21.296;2023-04-08T03:12:38;14.20;;;7.82;;
55063;SDS011;40963;52.168;21.296;2023-04-08T03:15:03;15.07;;;6.88;;
55063;SDS011;40963;52.168;21.296;2023-04-08T03:17:30;18.35;;;9.30;;
55063;SDS011;40963;52.168;21.296;2023-04-08T03:19:58;23.90;;;10.30;;
55063;SDS011;40963;52.168;21.296;2023-04-08T03:22:24;27.70;;;11.80;;
55063;SDS011;40963;52.168;21.296;2023-04-08T03:24:50;26.98;;;9.60;;
55063;SDS011;40963;52.168;21.296;2023-04-08T03:27:15;25.90;;;10.45;;
55063;SDS011;40963;52.168;21.296;2023-04-08T03:29:41;23.05;;;9.38;;
55063;SDS011;40963;52.168;21.296;2023-04-08T03:32:07;26.85;;;10.18;;
55063;SDS011;40963;52.168;21.296;2023-04-08T03:34:33;25.45;;;10.38;;
55063;SDS011;40963;52.168;21.296;2023-04-08T03:36:59;19.95;;;8.80;;
55063;SDS011;40963;52.168;21.296;2023-04-08T03:39:25;17.33;;;7.78;;
55063;SDS011;40963;52.168;21.296;2023-04-08T03:41:51;15.52;;;8.27;;
55063;SDS011;40963;52.168;21.296;2023-04-08T03:44:16;14.93;;;8.63;;
55063;SDS011;40963;52.168;21.296;2023-04-08T03:46:42;14.45;;;8.27;;
55063;SDS011;40963;52.168;21.296;2023-04-08T03:49:07;15.75;;;8.77;;
55063;SDS011;40963;52.168;21.296;2023-04-08T03:51:33;14.95;;;7.95;;
55063;SDS011;40963;52.168;21.296;2023-04-08T03:53:58;19.38;;;7.72;;
55063;SDS011;40963;52.168;21.296;2023-04-08T03:56:24;18.10;;;8.95;;
55063;SDS011;40963;52.168;21.296;2023-04-08T03:58:50;19.40;;;7.85;;
55063;SDS011;40963;52.168;21.296;2023-04-08T04:01:15;22.30;;;9.15;;
55063;SDS011;40963;52.168;21.296;2023-04-08T04:03:41;21.40;;;9.25;;
55063;SDS011;40963;52.168;21.296;2023-04-08T04:06:07;16.92;;;8.60;;
55063;SDS011;40963;52.168;21.296;2023-04-08T04:08:32;19.48;;;8.10;;
55063;SDS011;40963;52.168;21.296;2023-04-08T04:10:58;18.75;;;9.60;;
55063;SDS011;40963;52.168;21.296;2023-04-08T04:13:24;20.30;;;8.98;;
55063;SDS011;40963;52.168;21.296;2023-04-08T04:15:50;15.60;;;8.27;;
55063;SDS011;40963;52.168;21.296;2023-04-08T04:18:15;20.27;;;9.00;;
55063;SDS011;40963;52.168;21.296;2023-04-08T04:20:41;18.10;;;9.00;;
55063;SDS011;40963;52.168;21.296;2023-04-08T04:23:07;22.35;;;10.18;;
55063;SDS011;40963;52.168;21.296;2023-04-08T04:25:33;20.17;;;10.07;;
55063;SDS011;40963;52.168;21.296;2023-04-08T04:27:59;19.40;;;9.15;;
55063;SDS011;40963;52.168;21.296;2023-04-08T04:30:25;25.65;;;9.75;;
55063;SDS011;40963;52.168;21.296;2023-04-08T04:32:51;23.98;;;9.75;;
55063;SDS011;40963;52.168;21.296;2023-04-08T04:35:17;23.27;;;9.82;;
55063;SDS011;40963;52.168;21.296;2023-04-08T04:37:42;20.52;;;10.13;;
55063;SDS011;40963;52.168;21.296;2023-04-08T04:40:08;26.40;;;10.75;;
55063;SDS011;40963;52.168;21.296;2023-04-08T04:42:34;21.77;;;10.57;;
55063;SDS011;40963;52.168;21.296;2023-04-08T04:44:59;25.40;;;10.55;;
55063;SDS011;40963;52.168;21.296;2023-04-08T04:47:25;19.80;;;9.90;;
55063;SDS011;40963;52.168;21.296;2023-04-08T04:49:51;23.92;;;10.43;;
55063;SDS011;40963;52.168;21.296;2023-04-08T04:52:16;22.98;;;11.45;;
55063;SDS011;40963;52.168;21.296;2023-04-08T04:54:42;25.77;;;11.05;;
55063;SDS011;40963;52.168;21.296;2023-04-08T04:57:07;27.05;;;11.80;;
55063;SDS011;40963;52.168;21.296;2023-04-08T04:59:35;36.45;;;14.30;;
55063;SDS011;40963;52.168;21.296;2023-04-08T05:02:00;33.95;;;14.30;;
55063;SDS011;40963;52.168;21.296;2023-04-08T05:04:26;39.60;;;15.15;;
55063;SDS011;40963;52.168;21.296;2023-04-08T05:06:51;36.25;;;14.63;;
55063;SDS011;40963;52.168;21.296;2023-04-08T05:09:17;31.80;;;12.48;;
55063;SDS011;40963;52.168;21.296;2023-04-08T05:11:43;27.25;;;12.07;;
55063;SDS011;40963;52.168;21.296;2023-04-08T05:14:08;34.72;;;14.70;;
55063;SDS011;40963;52.168;21.296;2023-04-08T05:16:34;40.35;;;15.82;;
55063;SDS011;40963;52.168;21.296;2023-04-08T05:19:00;33.80;;;13.85;;
55063;SDS011;40963;52.168;21.296;2023-04-08T05:21:25;28.23;;;11.90;;
55063;SDS011;40963;52.168;21.296;2023-04-08T05:23:51;33.17;;;12.93;;
55063;SDS011;40963;52.168;21.296;2023-04-08T05:26:18;23.92;;;12.07;;
55063;SDS011;40963;52.168;21.296;2023-04-08T05:28:45;28.15;;;12.20;;
55063;SDS011;40963;52.168;21.296;2023-04-08T05:31:11;31.10;;;14.57;;
55063;SDS011;40963;52.168;21.296;2023-04-08T05:33:40;29.48;;;13.02;;
55063;SDS011;40963;52.168;21.296;2023-04-08T05:36:05;25.65;;;11.80;;
55063;SDS011;40963;52.168;21.296;2023-04-08T05:38:31;25.77;;;11.85;;
55063;SDS011;40963;52.168;21.296;2023-04-08T05:40:57;23.65;;;11.32;;
55063;SDS011;40963;52.168;21.296;2023-04-08T05:43:22;27.38;;;12.07;;
55063;SDS011;40963;52.168;21.296;2023-04-08T05:45:48;27.25;;;12.32;;
55063;SDS011;40963;52.168;21.296;2023-04-08T05:48:13;30.65;;;12.55;;
55063;SDS011;40963;52.168;21.296;2023-04-08T05:50:39;20.85;;;11.00;;
55063;SDS011;40963;52.168;21.296;2023-04-08T05:53:05;27.40;;;11.50;;
55063;SDS011;40963;52.168;21.296;2023-04-08T05:55:30;23.50;;;11.32;;
55063;SDS011;40963;52.168;21.296;2023-04-08T05:57:56;22.30;;;11.02;;
55063;SDS011;40963;52.168;21.296;2023-04-08T06:00:21;22.70;;;11.88;;
55063;SDS011;40963;52.168;21.296;2023-04-08T06:02:47;26.05;;;11.73;;
55063;SDS011;40963;52.168;21.296;2023-04-08T06:05:13;24.02;;;11.52;;
55063;SDS011;40963;52.168;21.296;2023-04-08T06:07:38;19.58;;;10.95;;
55063;SDS011;40963;52.168;21.296;2023-04-08T06:10:04;19.15;;;10.05;;
55063;SDS011;40963;52.168;21.296;2023-04-08T06:12:33;19.30;;;10.02;;
55063;SDS011;40963;52.168;21.296;2023-04-08T06:15:00;23.08;;;10.75;;
55063;SDS011;40963;52.168;21.296;2023-04-08T06:17:25;24.27;;;11.75;;
55063;SDS011;40963;52.168;21.296;2023-04-08T06:19:51;21.25;;;10.40;;
55063;SDS011;40963;52.168;21.296;2023-04-08T06:22:16;19.83;;;9.55;;
55063;SDS011;40963;52.168;21.296;2023-04-08T06:24:42;20.05;;;9.95;;
55063;SDS011;40963;52.168;21.296;2023-04-08T06:27:08;25.67;;;11.18;;
55063;SDS011;40963;52.168;21.296;2023-04-08T06:29:33;20.75;;;11.57;;
55063;SDS011;40963;52.168;21.296;2023-04-08T06:31:59;21.27;;;11.70;;
55063;SDS011;40963;52.168;21.296;2023-04-08T06:34:25;20.30;;;10.50;;
55063;SDS011;40963;52.168;21.296;2023-04-08T06:36:50;17.52;;;10.13;;
55063;SDS011;40963;52.168;21.296;2023-04-08T06:39:16;14.63;;;8.82;;
55063;SDS011;40963;52.168;21.296;2023-04-08T06:41:43;16.80;;;8.48;;
55063;SDS011;40963;52.168;21.296;2023-04-08T06:44:08;15.70;;;9.13;;
55063;SDS011;40963;52.168;21.296;2023-04-08T06:46:34;12.60;;;7.88;;
55063;SDS011;40963;52.168;21.296;2023-04-08T06:49:00;14.13;;;8.10;;
55063;SDS011;40963;52.168;21.296;2023-04-08T06:51:25;15.32;;;8.15;;
55063;SDS011;40963;52.168;21.296;2023-04-08T06:53:52;17.42;;;9.95;;
55063;SDS011;40963;52.168;21.296;2023-04-08T06:56:17;15.55;;;8.27;;
55063;SDS011;40963;52.168;21.296;2023-04-08T06:58:45;15.10;;;8.82;;
55063;SDS011;40963;52.168;21.296;2023-04-08T07:01:11;14.70;;;9.00;;
55063;SDS011;40963;52.168;21.296;2023-04-08T07:03:36;15.30;;;8.40;;
55063;SDS011;40963;52.168;21.296;2023-04-08T07:06:02;13.57;;;8.93;;
55063;SDS011;40963;52.168;21.296;2023-04-08T07:08:29;13.10;;;8.07;;
55063;SDS011;40963;52.168;21.296;2023-04-08T07:10:55;15.27;;;8.57;;
55063;SDS011;40963;52.168;21.296;2023-04-08T07:13:20;20.88;;;9.43;;
55063;SDS011;40963;52.168;21.296;2023-04-08T07:15:47;17.92;;;9.40;;
55063;SDS011;40963;52.168;21.296;2023-04-08T07:18:13;14.10;;;8.68;;
55063;SDS011;40963;52.168;21.296;2023-04-08T07:20:38;12.40;;;7.85;;
55063;SDS011;40963;52.168;21.296;2023-04-08T07:23:04;12.43;;;7.70;;
55063;SDS011;40963;52.168;21.296;2023-04-08T07:25:31;13.18;;;7.97;;
55063;SDS011;40963;52.168;21.296;2023-04-08T07:27:59;11.73;;;6.90;;
55063;SDS011;40963;52.168;21.296;2023-04-08T07:30:24;12.68;;;7.20;;
55063;SDS011;40963;52.168;21.296;2023-04-08T07:32:50;10.68;;;7.38;;
55063;SDS011;40963;52.168;21.296;2023-04-08T07:35:16;12.82;;;7.05;;
55063;SDS011;40963;52.168;21.296;2023-04-08T07:37:48;10.35;;;7.13;;
55063;SDS011;40963;52.168;21.296;2023-04-08T07:40:14;14.85;;;8.50;;
55063;SDS011;40963;52.168;21.296;2023-04-08T07:42:40;15.25;;;8.52;;
55063;SDS011;40963;52.168;21.296;2023-04-08T07:45:06;12.27;;;7.55;;
55063;SDS011;40963;52.168;21.296;2023-04-08T07:47:32;12.45;;;7.68;;
55063;SDS011;40963;52.168;21.296;2023-04-08T07:49:58;12.35;;;7.95;;
55063;SDS011;40963;52.168;21.296;2023-04-08T07:52:23;13.77;;;7.40;;
55063;SDS011;40963;52.168;21.296;2023-04-08T07:54:50;11.85;;;7.43;;
55063;SDS011;40963;52.168;21.296;2023-04-08T07:57:15;9.95;;;6.90;;
55063;SDS011;40963;52.168;21.296;2023-04-08T07:59:41;10.02;;;6.72;;
55063;SDS011;40963;52.168;21.296;2023-04-08T08:02:06;12.18;;;7.97;;
55063;SDS011;40963;52.168;21.296;2023-04-08T08:04:32;12.73;;;7.65;;
55063;SDS011;40963;52.168;21.296;2023-04-08T08:06:58;12.10;;;7.05;;
55063;SDS011;40963;52.168;21.296;2023-04-08T08:09:23;12.80;;;7.65;;
55063;SDS011;40963;52.168;21.296;2023-04-08T08:11:49;8.40;;;6.32;;
55063;SDS011;40963;52.168;21.296;2023-04-08T08:14:14;12.25;;;6.63;;
55063;SDS011;40963;52.168;21.296;2023-04-08T08:16:40;11.85;;;6.40;;
55063;SDS011;40963;52.168;21.296;2023-04-08T08:19:06;12.93;;;6.55;;
55063;SDS011;40963;52.168;21.296;2023-04-08T08:21:35;10.48;;;6.45;;
55063;SDS011;40963;52.168;21.296;2023-04-08T08:24:01;10.75;;;7.55;;
55063;SDS011;40963;52.168;21.296;2023-04-08T08:26:26;12.57;;;7.82;;
55063;SDS011;40963;52.168;21.296;2023-04-08T08:28:52;12.23;;;8.52;;
55063;SDS011;40963;52.168;21.296;2023-04-08T08:31:18;11.43;;;8.60;;
55063;SDS011;40963;52.168;21.296;2023-04-08T08:33:44;12.15;;;7.80;;
55063;SDS011;40963;52.168;21.296;2023-04-08T08:36:10;11.95;;;7.50;;
55063;SDS011;40963;52.168;21.296;2023-04-08T08:38:36;12.20;;;7.72;;
55063;SDS011;40963;52.168;21.296;2023-04-08T08:41:02;13.88;;;7.88;;
55063;SDS011;40963;52.168;21.296;2023-04-08T08:43:28;11.73;;;7.55;;
55063;SDS011;40963;52.168;21.296;2023-04-08T08:45:57;10.93;;;7.13;;
55063;SDS011;40963;52.168;21.296;2023-04-08T08:48:23;11.13;;;7.60;;
55063;SDS011;40963;52.168;21.296;2023-04-08T08:50:49;12.07;;;8.10;;
55063;SDS011;40963;52.168;21.296;2023-04-08T08:53:15;13.32;;;7.85;;
55063;SDS011;40963;52.168;21.296;2023-04-08T08:55:41;10.85;;;7.15;;
55063;SDS011;40963;52.168;21.296;2023-04-08T08:58:07;13.20;;;8.02;;
55063;SDS011;40963;52.168;21.296;2023-04-08T09:03:21;9.95;;;6.97;;
55063;SDS011;40963;52.168;21.296;2023-04-08T09:08:31;10.82;;;6.78;;
55063;SDS011;40963;52.168;21.296;2023-04-08T09:11:11;9.68;;;6.75;;
55063;SDS011;40963;52.168;21.296;2023-04-08T09:13:38;9.43;;;6.75;;
55063;SDS011;40963;52.168;21.296;2023-04-08T09:16:05;11.43;;;7.45;;
55063;SDS011;40963;52.168;21.296;2023-04-08T09:18:32;11.27;;;6.55;;
55063;SDS011;40963;52.168;21.296;2023-04-08T09:20:59;10.90;;;7.53;;
55063;SDS011;40963;52.168;21.296;2023-04-08T09:26:17;10.10;;;7.35;;
55063;SDS011;40963;52.168;21.296;2023-04-08T09:28:56;10.07;;;5.97;;
55063;SDS011;40963;52.168;21.296;2023-04-08T09:31:24;10.32;;;6.93;;
55063;SDS011;40963;52.168;21.296;2023-04-08T09:33:52;10.43;;;7.35;;
55063;SDS011;40963;52.168;21.296;2023-04-08T09:36:22;11.07;;;7.03;;
55063;SDS011;40963;52.168;21.296;2023-04-08T09:38:50;10.15;;;7.05;;
55063;SDS011;40963;52.168;21.296;2023-04-08T09:41:16;10.00;;;7.07;;
55063;SDS011;40963;52.168;21.296;2023-04-08T09:43:48;8.55;;;6.45;;
55063;SDS011;40963;52.168;21.296;2023-04-08T09:46:16;8.63;;;6.25;;
55063;SDS011;40963;52.168;21.296;2023-04-08T09:48:49;13.48;;;7.68;;
55063;SDS011;40963;52.168;21.296;2023-04-08T09:51:20;11.27;;;7.38;;
55063;SDS011;40963;52.168;21.296;2023-04-08T09:53:49;9.55;;;7.32;;
55063;SDS011;40963;52.168;21.296;2023-04-08T09:56:21;9.73;;;6.30;;
55063;SDS011;40963;52.168;21.296;2023-04-08T09:58:51;11.00;;;6.78;;
55063;SDS011;40963;52.168;21.296;2023-04-08T10:01:27;9.77;;;6.85;;
55063;SDS011;40963;52.168;21.296;2023-04-08T10:04:01;8.70;;;6.03;;
55063;SDS011;40963;52.168;21.296;2023-04-08T10:06:32;8.65;;;6.20;;
55063;SDS011;40963;52.168;21.296;2023-04-08T10:08:58;8.60;;;6.50;;
55063;SDS011;40963;52.168;21.296;2023-04-08T10:11:26;10.00;;;6.57;;
55063;SDS011;40963;52.168;21.296;2023-04-08T10:13:53;8.73;;;6.03;;
55063;SDS011;40963;52.168;21.296;2023-04-08T10:16:23;11.18;;;6.85;;
55063;SDS011;40963;52.168;21.296;2023-04-08T10:18:55;8.73;;;6.70;;
55063;SDS011;40963;52.168;21.296;2023-04-08T10:24:11;8.75;;;6.07;;
55063;SDS011;40963;52.168;21.296;2023-04-08T10:26:38;11.82;;;6.38;;
55063;SDS011;40963;52.168;21.296;2023-04-08T10:31:46;8.40;;;6.38;;
55063;SDS011;40963;52.168;21.296;2023-04-08T10:34:20;8.55;;;6.53;;
55063;SDS011;40963;52.168;21.296;2023-04-08T10:36:48;9.80;;;6.80;;
55063;SDS011;40963;52.168;21.296;2023-04-08T10:39:15;9.90;;;6.57;;
55063;SDS011;40963;52.168;21.296;2023-04-08T10:41:45;9.05;;;6.38;;
55063;SDS011;40963;52.168;21.296;2023-04-08T10:44:15;9.73;;;6.25;;
55063;SDS011;40963;52.168;21.296;2023-04-08T10:46:49;9.02;;;6.45;;
55063;SDS011;40963;52.168;21.296;2023-04-08T10:49:16;8.93;;;6.35;;
55063;SDS011;40963;52.168;21.296;2023-04-08T10:51:42;8.98;;;6.93;;
55063;SDS011;40963;52.168;21.296;2023-04-08T10:54:14;9.82;;;6.63;;
55063;SDS011;40963;52.168;21.296;2023-04-08T10:56:48;8.98;;;6.35;;
55063;SDS011;40963;52.168;21.296;2023-04-08T10:59:15;12.82;;;6.70;;
55063;SDS011;40963;52.168;21.296;2023-04-08T11:01:50;7.60;;;5.95;;
55063;SDS011;40963;52.168;21.296;2023-04-08T11:04:16;7.45;;;6.38;;
55063;SDS011;40963;52.168;21.296;2023-04-08T11:06:43;8.93;;;6.22;;
55063;SDS011;40963;52.168;21.296;2023-04-08T11:09:11;8.57;;;6.60;;
55063;SDS011;40963;52.168;21.296;2023-04-08T11:11:38;9.90;;;7.25;;
55063;SDS011;40963;52.168;21.296;2023-04-08T11:14:06;7.30;;;5.40;;
55063;SDS011;40963;52.168;21.296;2023-04-08T11:16:32;9.25;;;6.00;;
55063;SDS011;40963;52.168;21.296;2023-04-08T11:18:59;10.25;;;6.03;;
55063;SDS011;40963;52.168;21.296;2023-04-08T11:21:26;8.25;;;6.00;;
55063;SDS011;40963;52.168;21.296;2023-04-08T11:23:53;10.05;;;6.70;;
55063;SDS011;40963;52.168;21.296;2023-04-08T11:26:20;8.73;;;6.40;;
55063;SDS011;40963;52.168;21.296;2023-04-08T11:28:46;8.35;;;5.72;;
55063;SDS011;40963;52.168;21.296;2023-04-08T11:31:15;7.60;;;5.35;;
55063;SDS011;40963;52.168;21.296;2023-04-08T11:33:45;5.65;;;4.78;;
55063;SDS011;40963;52.168;21.296;2023-04-08T11:36:12;7.18;;;5.47;;
55063;SDS011;40963;52.168;21.296;2023-04-08T11:38:39;7.70;;;5.18;;
55063;SDS011;40963;52.168;21.296;2023-04-08T11:41:07;7.57;;;5.80;;
55063;SDS011;40963;52.168;21.296;2023-04-08T11:43:34;10.88;;;5.93;;
55063;SDS011;40963;52.168;21.296;2023-04-08T11:46:09;8.02;;;5.47;;
55063;SDS011;40963;52.168;21.296;2023-04-08T11:48:36;6.55;;;4.93;;
55063;SDS011;40963;52.168;21.296;2023-04-08T11:51:03;6.88;;;4.97;;
55063;SDS011;40963;52.168;21.296;2023-04-08T11:53:32;7.25;;;4.93;;
55063;SDS011;40963;52.168;21.296;2023-04-08T11:56:14;7.15;;;4.93;;
55063;SDS011;40963;52.168;21.296;2023-04-08T11:58:43;6.43;;;4.72;;
55063;SDS011;40963;52.168;21.296;2023-04-08T12:01:09;6.85;;;4.70;;
55063;SDS011;40963;52.168;21.296;2023-04-08T12:03:35;6.05;;;4.75;;
55063;SDS011;40963;52.168;21.296;2023-04-08T12:06:01;9.63;;;4.90;;
55063;SDS011;40963;52.168;21.296;2023-04-08T12:08:26;6.38;;;4.05;;
55063;SDS011;40963;52.168;21.296;2023-04-08T12:10:52;6.70;;;5.10;;
55063;SDS011;40963;52.168;21.296;2023-04-08T12:13:17;6.00;;;4.68;;
55063;SDS011;40963;52.168;21.296;2023-04-08T12:15:43;4.93;;;3.83;;
55063;SDS011;40963;52.168;21.296;2023-04-08T12:18:09;5.50;;;4.10;;
55063;SDS011;40963;52.168;21.296;2023-04-08T12:20:35;6.28;;;4.72;;
55063;SDS011;40963;52.168;21.296;2023-04-08T12:23:00;5.18;;;4.38;;
55063;SDS011;40963;52.168;21.296;2023-04-08T12:25:26;5.53;;;4.10;;
55063;SDS011;40963;52.168;21.296;2023-04-08T12:27:51;4.35;;;3.33;;
55063;SDS011;40963;52.168;21.296;2023-04-08T12:30:17;5.28;;;4.20;;
55063;SDS011;40963;52.168;21.296;2023-04-08T12:32:43;5.28;;;4.10;;
55063;SDS011;40963;52.168;21.296;2023-04-08T12:35:10;7.10;;;4.00;;
55063;SDS011;40963;52.168;21.296;2023-04-08T12:37:35;7.72;;;4.80;;
55063;SDS011;40963;52.168;21.296;2023-04-08T12:40:04;5.40;;;4.35;;
55063;SDS011;40963;52.168;21.296;2023-04-08T12:42:30;4.63;;;3.90;;
55063;SDS011;40963;52.168;21.296;2023-04-08T12:44:56;5.40;;;4.07;;
55063;SDS011;40963;52.168;21.296;2023-04-08T12:47:21;8.23;;;4.18;;
55063;SDS011;40963;52.168;21.296;2023-04-08T12:49:47;6.60;;;4.50;;
55063;SDS011;40963;52.168;21.296;2023-04-08T12:52:13;6.15;;;4.28;;
55063;SDS011;40963;52.168;21.296;2023-04-08T12:54:39;5.88;;;4.38;;
55063;SDS011;40963;52.168;21.296;2023-04-08T12:57:05;5.43;;;4.38;;
55063;SDS011;40963;52.168;21.296;2023-04-08T12:59:31;6.68;;;4.97;;
55063;SDS011;40963;52.168;21.296;2023-04-08T13:01:57;8.52;;;4.45;;
55063;SDS011;40963;52.168;21.296;2023-04-08T13:04:23;5.68;;;4.47;;
55063;SDS011;40963;52.168;21.296;2023-04-08T13:06:48;7.13;;;4.40;;
55063;SDS011;40963;52.168;21.296;2023-04-08T13:09:14;7.97;;;4.68;;
55063;SDS011;40963;52.168;21.296;2023-04-08T13:11:39;6.18;;;4.72;;
55063;SDS011;40963;52.168;21.296;2023-04-08T13:14:05;6.32;;;4.68;;
55063;SDS011;40963;52.168;21.296;2023-04-08T13:16:31;4.70;;;3.75;;
55063;SDS011;40963;52.168;21.296;2023-04-08T13:18:57;4.35;;;3.72;;
55063;SDS011;40963;52.168;21.296;2023-04-08T13:21:22;4.22;;;3.58;;
55063;SDS011;40963;52.168;21.296;2023-04-08T13:23:48;5.05;;;4.30;;
55063;SDS011;40963;52.168;21.296;2023-04-08T13:26:13;5.43;;;4.05;;
55063;SDS011;40963;52.168;21.296;2023-04-08T13:28:39;4.72;;;4.18;;
55063;SDS011;40963;52.168;21.296;2023-04-08T13:31:05;4.50;;;3.70;;
55063;SDS011;40963;52.168;21.296;2023-04-08T13:33:31;5.65;;;4.38;;
55063;SDS011;40963;52.168;21.296;2023-04-08T13:35:56;5.63;;;4.60;;
55063;SDS011;40963;52.168;21.296;2023-04-08T13:38:22;4.07;;;3.38;;
55063;SDS011;40963;52.168;21.296;2023-04-08T13:40:47;5.95;;;3.95;;
55063;SDS011;40963;52.168;21.296;2023-04-08T13:43:14;5.18;;;3.95;;
55063;SDS011;40963;52.168;21.296;2023-04-08T13:45:39;5.63;;;3.90;;
55063;SDS011;40963;52.168;21.296;2023-04-08T13:48:05;6.05;;;4.13;;
55063;SDS011;40963;52.168;21.296;2023-04-08T13:50:31;6.03;;;4.25;;
55063;SDS011;40963;52.168;21.296;2023-04-08T13:52:57;7.97;;;5.40;;
55063;SDS011;40963;52.168;21.296;2023-04-08T13:55:22;5.55;;;4.53;;
55063;SDS011;40963;52.168;21.296;2023-04-08T13:57:48;5.70;;;4.45;;
55063;SDS011;40963;52.168;21.296;2023-04-08T14:00:13;6.20;;;4.95;;
55063;SDS011;40963;52.168;21.296;2023-04-08T14:02:39;8.80;;;4.47;;
55063;SDS011;40963;52.168;21.296;2023-04-08T14:05:05;5.35;;;4.20;;
55063;SDS011;40963;52.168;21.296;2023-04-08T14:07:31;6.40;;;4.38;;
55063;SDS011;40963;52.168;21.296;2023-04-08T14:09:57;5.75;;;4.20;;
55063;SDS011;40963;52.168;21.296;2023-04-08T14:12:22;5.47;;;4.20;;
55063;SDS011;40963;52.168;21.296;2023-04-08T14:14:48;10.23;;;6.43;;
55063;SDS011;40963;52.168;21.296;2023-04-08T14:17:13;7.68;;;4.40;;
55063;SDS011;40963;52.168;21.296;2023-04-08T14:19:39;5.47;;;4.57;;
55063;SDS011;40963;52.168;21.296;2023-04-08T14:22:06;4.75;;;4.15;;
55063;SDS011;40963;52.168;21.296;2023-04-08T14:24:31;5.18;;;4.15;;
55063;SDS011;40963;52.168;21.296;2023-04-08T14:26:57;6.00;;;4.75;;
55063;SDS011;40963;52.168;21.296;2023-04-08T14:29:23;4.90;;;4.18;;
55063;SDS011;40963;52.168;21.296;2023-04-08T14:31:48;6.60;;;4.65;;
55063;SDS011;40963;52.168;21.296;2023-04-08T14:34:14;6.28;;;4.70;;
55063;SDS011;40963;52.168;21.296;2023-04-08T14:36:39;7.18;;;3.67;;
55063;SDS011;40963;52.168;21.296;2023-04-08T14:39:05;6.00;;;4.18;;